createdAt,value
2018-02-11T00:01:26.358Z,57.50
2018-02-11T00:03:55.746Z,57.42
2018-02-11T00:06:24.046Z,58.47
2018-02-11T00:08:52.342Z,49.88
2018-02-11T00:11:21.534Z,50.08
2018-02-11T00:13:49.866Z,47.08
2018-02-11T00:16:18.205Z,48.35
2018-02-11T00:18:46.542Z,50.17
2018-02-11T00:21:14.838Z,56.88
2018-02-11T00:23:43.170Z,51.55
2018-02-11T00:26:11.462Z,58.33
2018-02-11T00:28:39.798Z,43.25
2018-02-11T00:31:08.094Z,58.78
2018-02-11T00:33:36.446Z,47.20
2018-02-11T00:36:04.786Z,51.67
2018-02-11T00:38:33.081Z,44.78
2018-02-11T00:41:01.464Z,50.10
2018-02-11T00:43:30.538Z,53.00
2018-02-11T00:45:59.598Z,51.22
2018-02-11T00:48:27.934Z,61.25
2018-02-11T00:50:57.038Z,60.78
2018-02-11T00:53:26.103Z,55.28
2018-02-11T00:55:54.439Z,46.00
2018-02-11T00:58:23.541Z,44.83
2018-02-11T01:00:52.606Z,55.87
2018-02-11T01:03:20.955Z,55.00
2018-02-11T01:05:50.014Z,55.03
2018-02-11T01:08:18.336Z,45.55
2018-02-11T01:10:46.666Z,57.83
2018-02-11T01:13:15.195Z,51.78
2018-02-11T01:15:43.490Z,52.55
2018-02-11T01:18:11.786Z,48.08
2018-02-11T01:20:40.131Z,57.92
2018-02-11T01:23:08.467Z,52.22
2018-02-11T01:25:38.306Z,62.90
2018-02-11T01:28:06.598Z,51.00
2018-02-11T01:30:35.702Z,59.73
2018-02-11T01:33:03.994Z,51.00
2018-02-11T01:35:33.094Z,60.05
2018-02-11T01:38:02.409Z,52.03
2018-02-11T01:40:30.698Z,63.53
2018-02-11T01:42:59.766Z,51.22
2018-02-11T01:45:28.106Z,46.08
2018-02-11T01:47:57.214Z,58.67
2018-02-11T01:50:26.314Z,47.75
2018-02-11T01:52:54.614Z,54.65
2018-02-11T01:55:23.714Z,61.80
2018-02-11T01:57:52.006Z,51.80
2018-02-11T02:00:21.283Z,55.28
2018-02-11T02:02:49.586Z,51.83
2018-02-11T02:05:17.965Z,53.55
2018-02-11T02:07:46.234Z,55.53
2018-02-11T02:10:14.651Z,53.42
2018-02-11T02:12:42.939Z,52.92
2018-02-11T02:15:11.270Z,54.53
2018-02-11T02:17:40.339Z,53.80
2018-02-11T02:20:08.666Z,46.47
2018-02-11T02:22:37.731Z,58.70
2018-02-11T02:25:06.062Z,48.25
2018-02-11T02:27:35.126Z,54.50
2018-02-11T02:30:03.466Z,46.33
2018-02-11T02:32:31.766Z,49.30
2018-02-11T02:35:00.118Z,43.03
2018-02-11T02:37:28.406Z,61.03
2018-02-11T02:39:56.766Z,60.22
2018-02-11T02:42:25.062Z,65.37
2018-02-11T02:44:53.378Z,63.47
2018-02-11T02:47:21.714Z,55.50
2018-02-11T02:49:50.015Z,54.47
2018-02-11T02:52:18.707Z,55.25
2018-02-11T02:54:47.011Z,50.63
2018-02-11T02:57:15.307Z,55.00
2018-02-11T02:59:43.650Z,53.35
2018-02-11T03:02:11.946Z,67.05
2018-02-11T03:04:40.279Z,39.75
2018-02-11T03:07:08.621Z,50.55
2018-02-11T03:09:37.710Z,47.63
2018-02-11T03:12:06.000Z,46.33
2018-02-11T03:14:35.106Z,52.00
2018-02-11T03:17:04.303Z,47.08
2018-02-11T03:19:32.644Z,53.85
2018-02-11T03:22:00.934Z,52.60
2018-02-11T03:24:29.267Z,49.60
2018-02-11T03:26:57.561Z,59.20
2018-02-11T03:29:25.906Z,49.37
2018-02-11T03:31:54.202Z,47.33
2018-02-11T03:34:22.638Z,52.40
2018-02-11T03:36:50.939Z,48.33
2018-02-11T03:39:20.042Z,46.40
2018-02-11T03:41:48.375Z,60.30
2018-02-11T03:44:16.662Z,56.08
2018-02-11T03:46:45.007Z,52.10
2018-02-11T03:49:13.303Z,56.65
2018-02-11T03:51:42.414Z,54.10
2018-02-11T03:54:11.710Z,52.53
2018-02-11T03:56:40.107Z,51.92
2018-02-11T03:59:08.394Z,58.40
2018-02-11T04:01:36.737Z,49.92
2018-02-11T04:04:05.039Z,64.15
2018-02-11T04:06:33.462Z,52.90
2018-02-11T04:09:01.811Z,61.72
2018-02-11T04:11:30.916Z,50.20
2018-02-11T04:13:59.977Z,60.35
2018-02-11T04:16:28.315Z,60.70
2018-02-11T04:18:58.162Z,55.20
2018-02-11T04:21:26.500Z,65.45
2018-02-11T04:23:54.895Z,55.33
2018-02-11T04:26:24.058Z,57.78
2018-02-11T04:28:53.207Z,47.03
2018-02-11T04:31:21.798Z,56.78
2018-02-11T04:33:50.429Z,51.60
2018-02-11T04:36:18.910Z,54.38
2018-02-11T04:38:48.358Z,56.35
2018-02-11T04:41:16.692Z,55.53
2018-02-11T04:43:44.990Z,54.10
2018-02-11T04:46:14.091Z,64.83
2018-02-11T04:48:43.203Z,56.00
2018-02-11T04:51:12.314Z,55.58
2018-02-11T04:53:40.650Z,66.05
2018-02-11T04:56:09.782Z,54.70
2018-02-11T04:58:38.235Z,56.03
2018-02-11T05:01:06.587Z,54.60
2018-02-11T05:03:35.687Z,56.20
2018-02-11T05:06:04.171Z,53.40
2018-02-11T05:08:32.470Z,61.83
2018-02-11T05:11:00.815Z,58.50
2018-02-11T05:13:29.874Z,60.10
2018-02-11T05:15:58.210Z,65.05
2018-02-11T05:18:26.910Z,61.05
2018-02-11T05:20:55.206Z,58.00
2018-02-11T05:23:23.542Z,57.45
2018-02-11T05:25:51.938Z,58.40
2018-02-11T05:28:21.119Z,58.45
2018-02-11T05:30:50.076Z,53.50
2018-02-11T05:33:18.557Z,61.88
2018-02-11T05:35:47.734Z,48.15
2018-02-11T05:38:16.055Z,58.85
2018-02-11T05:40:44.494Z,73.62
2018-02-11T05:43:12.900Z,55.47
2018-02-11T05:45:41.298Z,75.17
2018-02-11T05:48:09.590Z,65.83
2018-02-11T05:50:37.985Z,55.20
2018-02-11T05:53:06.500Z,60.22
2018-02-11T05:55:34.798Z,56.40
2018-02-11T05:58:03.143Z,61.50
2018-02-11T06:00:32.247Z,59.17
2018-02-11T06:03:01.445Z,58.87
2018-02-11T06:05:29.787Z,63.73
2018-02-11T06:07:58.850Z,63.95
2018-02-11T06:10:27.194Z,60.12
2018-02-11T06:12:55.499Z,67.77
2018-02-11T06:15:23.943Z,69.53
2018-02-11T06:17:52.389Z,54.13
2018-02-11T06:20:21.666Z,56.95
2018-02-11T06:22:50.102Z,64.93
2018-02-11T06:25:18.447Z,71.60
2018-02-11T06:27:46.924Z,53.30
2018-02-11T06:30:15.302Z,59.53
2018-02-11T06:32:43.637Z,64.50
2018-02-11T06:35:11.931Z,57.60
2018-02-11T06:37:40.266Z,65.72
2018-02-11T06:40:09.367Z,61.95
2018-02-11T06:42:37.862Z,65.75
2018-02-11T06:45:06.339Z,53.07
2018-02-11T06:47:34.679Z,56.00
2018-02-11T06:50:02.975Z,53.75
2018-02-11T06:52:31.310Z,59.60
2018-02-11T06:55:00.378Z,58.03
2018-02-11T06:57:28.711Z,51.35
2018-02-11T06:59:57.007Z,54.55
2018-02-11T07:02:25.306Z,53.83
2018-02-11T07:04:53.805Z,44.20
2018-02-11T07:07:22.187Z,63.90
2018-02-11T07:09:50.614Z,59.13
2018-02-11T07:12:19.000Z,56.40
2018-02-11T07:14:47.394Z,54.97
2018-02-11T07:17:15.830Z,53.95
2018-02-11T07:19:44.145Z,59.13
2018-02-11T07:22:12.478Z,50.33
2018-02-11T07:24:40.814Z,52.30
2018-02-11T07:27:09.228Z,57.42
2018-02-11T07:29:37.679Z,44.00
2018-02-11T07:32:07.007Z,45.22
2018-02-11T07:34:35.367Z,49.97
2018-02-11T07:37:03.667Z,44.27
2018-02-11T07:39:32.026Z,60.90
2018-02-11T07:42:01.085Z,46.03
2018-02-11T07:44:29.383Z,49.78
2018-02-11T07:46:57.718Z,46.57
2018-02-11T07:49:26.015Z,43.83
2018-02-11T07:51:54.347Z,58.73
2018-02-11T07:54:23.723Z,44.28
2018-02-11T07:56:52.087Z,43.03
2018-02-11T07:59:20.630Z,54.20
2018-02-11T08:01:49.093Z,44.00
2018-02-11T08:04:17.601Z,48.03
2018-02-11T08:06:45.915Z,50.33
2018-02-11T08:09:14.267Z,44.03
2018-02-11T08:11:42.591Z,42.63
2018-02-11T08:14:10.922Z,35.03
2018-02-11T08:16:39.278Z,47.10
2018-02-11T08:19:07.622Z,41.83
2018-02-11T08:21:35.964Z,39.85
2018-02-11T08:24:04.265Z,40.30
2018-02-11T08:26:32.894Z,33.65
2018-02-11T08:29:01.276Z,36.23
2018-02-11T08:31:29.571Z,35.13
2018-02-11T08:33:58.203Z,31.53
2018-02-11T08:36:26.494Z,31.90
2018-02-11T08:38:54.791Z,35.50
2018-02-11T08:41:23.262Z,25.03
2018-02-11T08:43:51.654Z,30.57
2018-02-11T08:46:20.829Z,25.87
2018-02-11T08:48:49.538Z,25.07
2018-02-11T08:51:17.934Z,28.43
2018-02-11T08:53:46.242Z,23.83
2018-02-11T08:56:14.595Z,26.83
2018-02-11T08:58:43.674Z,27.60
2018-02-11T09:01:11.971Z,26.20
2018-02-11T09:03:40.306Z,27.83
2018-02-11T09:06:09.371Z,25.33
2018-02-11T09:08:37.716Z,29.77
2018-02-11T09:11:06.040Z,26.90
2018-02-11T09:13:34.370Z,21.63
2018-02-11T09:16:02.914Z,23.53
2018-02-11T09:18:31.210Z,21.70
2018-02-11T09:20:59.510Z,22.43
2018-02-11T09:23:27.847Z,21.30
2018-02-11T09:25:56.134Z,21.60
2018-02-11T09:28:24.530Z,22.63
2018-02-11T09:30:52.870Z,22.27
2018-02-11T09:33:21.982Z,17.83
2018-02-11T09:35:51.070Z,16.10
2018-02-11T09:38:19.583Z,16.40
2018-02-11T09:40:47.943Z,17.17
2018-02-11T09:43:16.238Z,16.60
2018-02-11T09:45:44.562Z,14.20
2018-02-11T09:48:12.878Z,14.50
2018-02-11T09:50:41.172Z,16.77
2018-02-11T09:53:09.495Z,13.67
2018-02-11T09:55:38.109Z,14.40
2018-02-11T09:58:06.403Z,16.33
2018-02-11T10:00:34.791Z,16.30
2018-02-11T10:03:03.419Z,15.77
2018-02-11T10:05:32.474Z,14.33
2018-02-11T10:08:00.758Z,17.03
2018-02-11T10:10:29.090Z,12.80
2018-02-11T10:12:57.379Z,18.40
2018-02-11T10:15:25.672Z,16.50
2018-02-11T10:17:54.003Z,15.40
2018-02-11T10:20:22.286Z,13.83
2018-02-11T10:22:50.610Z,12.60
2018-02-11T10:25:18.889Z,10.43
2018-02-11T10:27:47.409Z,12.37
2018-02-11T10:30:15.699Z,10.93
2018-02-11T10:32:43.982Z,13.53
2018-02-11T10:35:12.316Z,13.30
2018-02-11T10:37:41.365Z,12.07
2018-02-11T10:40:09.650Z,11.87
2018-02-11T10:42:37.974Z,10.30
2018-02-11T10:45:06.301Z,12.00
2018-02-11T10:47:34.591Z,11.53
2018-02-11T10:50:02.874Z,11.80
2018-02-11T10:52:31.218Z,8.93
2018-02-11T10:54:59.510Z,16.07
2018-02-11T10:57:27.799Z,11.40
2018-02-11T10:59:56.127Z,11.07
2018-02-11T11:02:25.190Z,10.67
2018-02-11T11:04:53.515Z,8.40
2018-02-11T11:07:22.562Z,10.17
2018-02-11T11:09:50.891Z,10.77
2018-02-11T11:12:19.231Z,5.87
2018-02-11T11:14:47.516Z,9.90
2018-02-11T11:17:15.834Z,8.93
2018-02-11T11:19:44.114Z,9.20
2018-02-11T11:22:12.395Z,8.93
2018-02-11T11:24:40.735Z,8.07
2018-02-11T11:27:09.026Z,10.80
2018-02-11T11:29:37.314Z,6.17
2018-02-11T11:32:05.647Z,5.80
2018-02-11T11:34:33.927Z,5.50
2018-02-11T11:37:02.270Z,9.43
2018-02-11T11:39:30.590Z,7.07
2018-02-11T11:41:59.634Z,6.80
2018-02-11T11:44:28.000Z,5.90
2018-02-11T11:46:56.346Z,4.60
2018-02-11T11:49:24.627Z,6.67
2018-02-11T11:51:53.126Z,7.10
2018-02-11T11:54:21.410Z,6.43
2018-02-11T11:56:49.690Z,7.53
2018-02-11T11:59:18.032Z,7.20
2018-02-11T12:01:47.078Z,7.20
2018-02-11T12:04:15.362Z,5.90
2018-02-11T12:06:43.678Z,6.67
2018-02-11T12:09:11.958Z,5.50
2018-02-11T12:11:40.283Z,5.67
2018-02-11T12:14:08.563Z,9.53
2018-02-11T12:16:37.145Z,5.37
2018-02-11T12:19:05.431Z,6.80
2018-02-11T12:21:33.706Z,6.33
2018-02-11T12:24:02.035Z,10.00
2018-02-11T12:26:31.086Z,6.47
2018-02-11T12:28:59.410Z,4.20
2018-02-11T12:31:27.690Z,9.80
2018-02-11T12:33:55.966Z,5.50
2018-02-11T12:38:58.778Z,5.83
2018-02-11T12:41:27.103Z,5.47
2018-02-11T12:43:55.378Z,9.93
2018-02-11T12:46:23.662Z,6.97
2018-02-11T12:48:51.977Z,5.90
2018-02-11T12:51:21.770Z,6.27
2018-02-11T12:53:50.053Z,5.23
2018-02-11T12:56:18.383Z,5.03
2018-02-11T12:58:46.722Z,6.10
2018-02-11T13:01:15.008Z,4.50
2018-02-11T13:03:43.323Z,7.57
2018-02-11T13:06:11.602Z,6.63
2018-02-11T13:08:39.891Z,6.00
2018-02-11T13:11:08.264Z,6.57
2018-02-11T13:13:36.811Z,9.57
2018-02-11T13:16:05.095Z,6.03
2018-02-11T13:18:33.381Z,6.17
2018-02-11T13:21:01.706Z,6.47
2018-02-11T13:23:30.789Z,7.10
2018-02-11T13:25:59.175Z,6.13
2018-02-11T13:28:29.098Z,8.27
2018-02-11T13:30:57.410Z,4.10
2018-02-11T13:33:26.508Z,7.63
2018-02-11T13:35:54.802Z,6.50
2018-02-11T13:38:23.078Z,5.53
2018-02-11T13:40:53.005Z,5.60
2018-02-11T13:43:21.278Z,6.27
2018-02-11T13:45:49.611Z,7.00
2018-02-11T13:48:18.707Z,7.67
2018-02-11T13:50:47.761Z,5.80
2018-02-11T13:53:16.086Z,8.97
2018-02-11T13:55:44.410Z,8.00
2018-02-11T13:58:13.458Z,5.47
2018-02-11T14:00:41.791Z,5.20
2018-02-11T14:03:10.070Z,6.43
2018-02-11T14:05:38.450Z,4.50
2018-02-11T14:08:08.287Z,7.40
2018-02-11T14:10:36.666Z,5.53
2018-02-11T14:13:04.946Z,8.03
2018-02-11T14:15:33.235Z,7.07
2018-02-11T14:18:01.562Z,6.10
2018-02-11T14:20:30.607Z,8.20
2018-02-11T14:22:58.930Z,7.83
2018-02-11T14:25:27.202Z,8.03
2018-02-11T14:27:55.710Z,7.57
2018-02-11T14:30:23.991Z,7.37
2018-02-11T14:32:52.266Z,9.03
2018-02-11T14:35:20.590Z,8.57
2018-02-11T14:37:48.870Z,11.33
2018-02-11T14:40:17.202Z,9.17
2018-02-11T14:42:45.514Z,8.10
2018-02-11T14:45:13.848Z,8.60
2018-02-11T14:47:42.131Z,11.37
2018-02-11T14:50:10.414Z,8.03
2018-02-11T14:52:38.742Z,11.80
2018-02-11T14:55:07.083Z,12.00
2018-02-11T14:57:35.391Z,6.47
2018-02-11T15:00:03.719Z,7.83
2018-02-11T15:02:32.006Z,7.17
2018-02-11T15:05:01.087Z,8.60
2018-02-11T15:07:30.165Z,7.23
2018-02-11T15:09:58.460Z,12.60
2018-02-11T15:12:26.862Z,11.20
2018-02-11T15:14:55.159Z,8.93
2018-02-11T15:17:23.462Z,13.20
2018-02-11T15:19:52.559Z,12.50
2018-02-11T15:22:21.138Z,9.47
2018-02-11T15:24:49.428Z,8.80
2018-02-11T15:27:17.719Z,10.10
2018-02-11T15:29:46.072Z,10.13
2018-02-11T15:32:14.706Z,10.10
2018-02-11T15:34:45.091Z,8.70
2018-02-11T15:37:13.378Z,6.93
2018-02-11T15:39:41.714Z,11.60
2018-02-11T15:42:09.999Z,7.77
2018-02-11T15:44:38.288Z,5.60
2018-02-11T15:47:06.611Z,9.90
2018-02-11T15:49:34.890Z,8.30
2018-02-11T15:52:03.217Z,6.97
2018-02-11T15:54:31.502Z,38.40
2018-02-11T15:56:59.794Z,689.63
2018-02-11T15:59:28.130Z,659.27
2018-02-11T16:01:56.435Z,1410.87
2018-02-11T16:04:24.778Z,621.70
2018-02-11T16:06:53.080Z,615.80
2018-02-11T16:09:21.436Z,136.10
2018-02-11T16:11:50.505Z,549.77
2018-02-11T16:14:18.811Z,173.80
2018-02-11T16:16:47.146Z,448.70
2018-02-11T16:19:15.451Z,49.92
2018-02-11T16:21:43.784Z,30.80
2018-02-11T16:24:12.102Z,16.30
2018-02-11T16:26:40.395Z,14.57
2018-02-11T16:29:08.723Z,30.60
2018-02-11T16:31:37.015Z,13.77
2018-02-11T16:34:05.366Z,14.13
2018-02-11T16:36:33.659Z,10.23
2018-02-11T16:39:01.948Z,12.50
2018-02-11T16:41:30.567Z,13.68
2018-02-11T16:43:58.851Z,13.63
2018-02-11T16:46:27.223Z,10.13
2018-02-11T16:48:55.545Z,22.20
2018-02-11T16:51:23.866Z,59.23
2018-02-11T16:53:52.173Z,102.27
2018-02-11T16:56:21.266Z,42.13
2018-02-11T16:58:49.642Z,19.17
2018-02-11T17:01:17.975Z,13.20
2018-02-11T17:03:46.258Z,10.47
2018-02-11T17:06:14.544Z,9.10
2018-02-11T17:08:43.626Z,10.43
2018-02-11T17:11:11.946Z,7.90
2018-02-11T17:13:40.234Z,9.83
2018-02-11T17:16:09.310Z,9.90
2018-02-11T17:18:39.138Z,10.10
2018-02-11T17:21:07.464Z,9.70
2018-02-11T17:23:35.744Z,9.80
2018-02-11T17:26:04.921Z,10.20
2018-02-11T17:28:33.295Z,13.23
2018-02-11T17:31:01.575Z,11.33
2018-02-11T17:33:29.890Z,7.87
2018-02-11T17:35:58.178Z,10.87
2018-02-11T17:38:26.669Z,7.43
2018-02-11T17:40:54.949Z,8.90
2018-02-11T17:43:23.235Z,8.63
2018-02-11T17:45:51.558Z,9.70
2018-02-11T17:48:19.926Z,8.23
2018-02-11T17:50:48.211Z,8.07
2018-02-11T17:53:16.522Z,9.03
2018-02-11T17:55:44.803Z,13.10
2018-02-11T17:58:13.082Z,8.27
2018-02-11T18:00:41.426Z,13.63
2018-02-11T18:03:09.706Z,8.93
2018-02-11T18:05:38.026Z,13.70
2018-02-11T18:08:06.645Z,8.17
2018-02-11T18:10:34.924Z,9.03
2018-02-11T18:13:03.207Z,7.50
2018-02-11T18:15:31.707Z,8.67
2018-02-11T18:18:00.012Z,9.80
2018-02-11T18:20:28.295Z,9.37
2018-02-11T18:22:56.890Z,9.30
2018-02-11T18:25:25.179Z,10.10
2018-02-11T18:27:53.471Z,9.30
2018-02-11T18:30:21.781Z,13.73
2018-02-11T18:32:50.839Z,8.40
2018-02-11T18:35:19.132Z,11.40
2018-02-11T18:37:47.450Z,12.40
2018-02-11T18:40:15.750Z,12.50
2018-02-11T18:42:44.127Z,10.97
2018-02-11T18:45:13.355Z,12.63
2018-02-11T18:47:42.475Z,11.00
2018-02-11T18:50:11.551Z,15.73
2018-02-11T18:52:39.881Z,11.57
2018-02-11T18:55:08.178Z,12.67
2018-02-11T18:57:36.521Z,12.30
2018-02-11T19:00:05.135Z,8.93
2018-02-11T19:02:34.178Z,11.90
2018-02-11T19:05:02.469Z,12.80
2018-02-11T19:07:30.795Z,10.60
2018-02-11T19:09:59.294Z,8.97
2018-02-11T19:12:27.678Z,18.10
2018-02-11T19:14:55.959Z,11.63
2018-02-11T19:17:24.311Z,14.70
2018-02-11T19:19:52.606Z,15.23
2018-02-11T19:22:20.933Z,18.37
2018-02-11T19:24:49.255Z,9.60
2018-02-11T19:27:17.578Z,11.00
2018-02-11T19:29:45.865Z,12.20
2018-02-11T19:32:14.178Z,7.10
2018-02-11T19:34:42.753Z,9.67
2018-02-11T19:37:11.026Z,16.03
2018-02-11T19:39:39.319Z,12.13
2018-02-11T19:42:07.661Z,10.07
2018-02-11T19:44:35.979Z,11.40
2018-02-11T19:47:05.027Z,7.87
2018-02-11T19:49:33.347Z,12.53
2018-02-11T19:52:01.634Z,12.97
2018-02-11T19:54:29.955Z,12.40
2018-02-11T19:56:59.034Z,8.70
2018-02-11T19:59:27.329Z,12.93
2018-02-11T20:01:55.660Z,7.10
2018-02-11T20:04:24.706Z,8.70
2018-02-11T20:06:52.990Z,13.53
2018-02-11T20:09:21.315Z,10.83
2018-02-11T20:11:51.119Z,11.07
2018-02-11T20:14:19.427Z,11.70
2018-02-11T20:16:47.800Z,7.13
2018-02-11T20:19:16.152Z,6.17
2018-02-11T20:21:44.434Z,6.87
2018-02-11T20:24:12.869Z,7.40
2018-02-11T20:26:41.174Z,11.27
2018-02-11T20:29:09.463Z,8.00
2018-02-11T20:31:37.786Z,9.83
2018-02-11T20:34:07.063Z,10.37
2018-02-11T20:36:35.356Z,7.67
2018-02-11T20:39:03.638Z,8.00
2018-02-11T20:41:31.950Z,7.50
2018-02-11T20:44:00.268Z,9.60
2018-02-11T20:46:28.546Z,5.77
2018-02-11T20:48:57.666Z,6.47
2018-02-11T20:51:25.992Z,7.70
2018-02-11T20:53:54.286Z,9.00
2018-02-11T20:56:22.601Z,9.60
2018-02-11T20:58:50.919Z,7.70
2018-02-11T21:01:19.218Z,6.97
2018-02-11T21:03:47.546Z,10.10
2018-02-11T21:06:15.837Z,9.27
2018-02-11T21:08:44.346Z,5.80
2018-02-11T21:11:12.647Z,11.17
2018-02-11T21:13:41.689Z,6.80
2018-02-11T21:16:10.371Z,8.03
2018-02-11T21:18:38.722Z,5.40
2018-02-11T21:21:07.007Z,8.60
2018-02-11T21:23:35.299Z,9.27
2018-02-11T21:26:03.646Z,5.07
2018-02-11T21:28:32.799Z,5.67
2018-02-11T21:31:01.083Z,9.63
2018-02-11T21:33:29.578Z,8.97
2018-02-11T21:35:57.870Z,7.13
2018-02-11T21:38:26.154Z,9.67
2018-02-11T21:40:54.486Z,8.90
2018-02-11T21:43:23.962Z,5.37
2018-02-11T21:45:52.243Z,9.17
2018-02-11T21:48:20.530Z,6.10
2018-02-11T21:50:49.146Z,6.57
2018-02-11T21:53:17.435Z,10.30
2018-02-11T21:55:45.776Z,13.77
2018-02-11T21:58:14.818Z,8.50
2018-02-11T22:00:43.111Z,8.80
2018-02-11T22:03:11.511Z,7.20
2018-02-11T22:05:39.818Z,8.03
2018-02-11T22:08:08.094Z,9.27
2018-02-11T22:10:36.406Z,6.20
2018-02-11T22:13:04.694Z,7.30
2018-02-11T22:15:33.782Z,8.40
2018-02-11T22:18:02.069Z,6.80
2018-02-11T22:20:30.399Z,9.40
2018-02-11T22:22:58.682Z,9.90
2018-02-11T22:25:27.033Z,7.07
2018-02-11T22:27:55.322Z,11.60
2018-02-11T22:30:23.639Z,6.97
2018-02-11T22:32:52.923Z,6.50
2018-02-11T22:35:21.215Z,6.80
2018-02-11T22:37:49.499Z,6.40
2018-02-11T22:40:17.990Z,7.27
2018-02-11T22:42:46.286Z,7.30
2018-02-11T22:45:14.665Z,6.80
2018-02-11T22:47:43.154Z,8.53
2018-02-11T22:50:11.424Z,7.00
2018-02-11T22:52:39.762Z,7.40
2018-02-11T22:55:08.084Z,8.03
2018-02-11T22:57:36.362Z,7.00
2018-02-11T23:00:04.655Z,7.20
2018-02-11T23:02:32.970Z,7.40
2018-02-11T23:05:01.294Z,7.22
2018-02-11T23:07:30.295Z,5.77
2018-02-11T23:09:58.606Z,8.63
2018-02-11T23:12:27.653Z,7.00
2018-02-11T23:14:55.970Z,7.50
2018-02-11T23:17:24.254Z,7.73
2018-02-11T23:19:52.562Z,6.93
2018-02-11T23:22:20.871Z,7.03
2018-02-11T23:24:49.163Z,8.33
2018-02-11T23:27:17.480Z,4.90
2018-02-11T23:29:45.764Z,5.63
2018-02-11T23:32:14.094Z,9.03
2018-02-11T23:34:42.379Z,9.20
2018-02-11T23:37:10.701Z,7.70
2018-02-11T23:39:38.985Z,5.73
2018-02-11T23:42:07.259Z,6.83
2018-02-11T23:44:35.583Z,7.32
2018-02-11T23:47:04.642Z,10.67
2018-02-11T23:49:33.043Z,7.13
2018-02-11T23:52:01.353Z,6.03
2018-02-11T23:54:29.643Z,5.63
2018-02-11T23:56:57.954Z,6.20
2018-02-11T23:59:26.246Z,7.28
